sensor_id;sensor_type;location;lat;lon;timestamp;P1;durP1;ratioP1;P2;durP2;ratioP2
82248;SDS011;71851;49.092;18.918;2024-01-30T00:00:26;58.10;;;13.15;;
82248;SDS011;71851;49.092;18.918;2024-01-30T00:03:26;45.05;;;14.10;;
82248;SDS011;71851;49.092;18.918;2024-01-30T00:06:27;35.42;;;13.05;;
82248;SDS011;71851;49.092;18.918;2024-01-30T00:09:27;61.88;;;15.15;;
82248;SDS011;71851;49.092;18.918;2024-01-30T00:12:28;58.53;;;15.50;;
82248;SDS011;71851;49.092;18.918;2024-01-30T00:15:28;39.38;;;14.13;;
82248;SDS011;71851;49.092;18.918;2024-01-30T00:18:29;37.05;;;14.30;;
82248;SDS011;71851;49.092;18.918;2024-01-30T00:21:29;81.93;;;15.70;;
82248;SDS011;71851;49.092;18.918;2024-01-30T00:24:29;74.70;;;14.40;;
82248;SDS011;71851;49.092;18.918;2024-01-30T00:27:30;38.63;;;15.05;;
82248;SDS011;71851;49.092;18.918;2024-01-30T00:30:30;32.58;;;13.77;;
82248;SDS011;71851;49.092;18.918;2024-01-30T00:33:32;58.47;;;13.63;;
82248;SDS011;71851;49.092;18.918;2024-01-30T00:36:32;87.93;;;16.00;;
82248;SDS011;71851;49.092;18.918;2024-01-30T00:39:34;48.70;;;15.45;;
82248;SDS011;71851;49.092;18.918;2024-01-30T00:42:34;45.45;;;15.13;;
82248;SDS011;71851;49.092;18.918;2024-01-30T00:45:35;43.33;;;13.70;;
82248;SDS011;71851;49.092;18.918;2024-01-30T00:48:35;38.55;;;13.77;;
82248;SDS011;71851;49.092;18.918;2024-01-30T00:51:35;63.60;;;15.27;;
82248;SDS011;71851;49.092;18.918;2024-01-30T00:54:36;42.47;;;15.00;;
82248;SDS011;71851;49.092;18.918;2024-01-30T00:57:37;45.35;;;15.32;;
82248;SDS011;71851;49.092;18.918;2024-01-30T01:00:37;44.13;;;14.95;;
82248;SDS011;71851;49.092;18.918;2024-01-30T01:03:37;62.03;;;14.07;;
82248;SDS011;71851;49.092;18.918;2024-01-30T01:06:38;55.90;;;15.10;;
82248;SDS011;71851;49.092;18.918;2024-01-30T01:09:39;48.47;;;12.93;;
82248;SDS011;71851;49.092;18.918;2024-01-30T01:12:40;60.83;;;15.82;;
82248;SDS011;71851;49.092;18.918;2024-01-30T01:15:40;37.38;;;15.20;;
82248;SDS011;71851;49.092;18.918;2024-01-30T01:18:40;47.70;;;15.50;;
82248;SDS011;71851;49.092;18.918;2024-01-30T01:21:41;36.85;;;16.10;;
82248;SDS011;71851;49.092;18.918;2024-01-30T01:24:41;53.85;;;15.48;;
82248;SDS011;71851;49.092;18.918;2024-01-30T01:27:41;40.10;;;15.65;;
82248;SDS011;71851;49.092;18.918;2024-01-30T01:30:43;88.68;;;16.20;;
82248;SDS011;71851;49.092;18.918;2024-01-30T01:33:43;49.67;;;16.33;;
82248;SDS011;71851;49.092;18.918;2024-01-30T01:36:44;74.28;;;17.98;;
82248;SDS011;71851;49.092;18.918;2024-01-30T01:39:44;106.00;;;18.15;;
82248;SDS011;71851;49.092;18.918;2024-01-30T01:42:44;82.65;;;15.20;;
82248;SDS011;71851;49.092;18.918;2024-01-30T01:45:45;59.88;;;16.13;;
82248;SDS011;71851;49.092;18.918;2024-01-30T01:48:46;48.42;;;17.40;;
82248;SDS011;71851;49.092;18.918;2024-01-30T01:51:47;46.55;;;15.73;;
82248;SDS011;71851;49.092;18.918;2024-01-30T01:54:48;67.32;;;16.05;;
82248;SDS011;71851;49.092;18.918;2024-01-30T01:57:49;60.03;;;16.20;;
82248;SDS011;71851;49.092;18.918;2024-01-30T02:00:50;45.75;;;14.90;;
82248;SDS011;71851;49.092;18.918;2024-01-30T02:03:51;45.33;;;17.00;;
82248;SDS011;71851;49.092;18.918;2024-01-30T02:06:51;41.17;;;18.02;;
82248;SDS011;71851;49.092;18.918;2024-01-30T02:09:52;51.35;;;16.90;;
82248;SDS011;71851;49.092;18.918;2024-01-30T02:12:53;48.28;;;14.00;;
82248;SDS011;71851;49.092;18.918;2024-01-30T02:15:53;44.35;;;15.63;;
82248;SDS011;71851;49.092;18.918;2024-01-30T02:18:56;41.58;;;15.73;;
82248;SDS011;71851;49.092;18.918;2024-01-30T02:21:57;39.75;;;15.30;;
82248;SDS011;71851;49.092;18.918;2024-01-30T02:24:58;44.55;;;15.18;;
82248;SDS011;71851;49.092;18.918;2024-01-30T02:27:58;50.70;;;16.08;;
82248;SDS011;71851;49.092;18.918;2024-01-30T02:30:59;54.13;;;14.75;;
82248;SDS011;71851;49.092;18.918;2024-01-30T02:33:59;58.85;;;15.25;;
82248;SDS011;71851;49.092;18.918;2024-01-30T02:36:59;43.95;;;15.00;;
82248;SDS011;71851;49.092;18.918;2024-01-30T02:40:00;47.67;;;14.55;;
82248;SDS011;71851;49.092;18.918;2024-01-30T02:43:01;49.30;;;15.88;;
82248;SDS011;71851;49.092;18.918;2024-01-30T02:46:02;66.90;;;16.45;;
82248;SDS011;71851;49.092;18.918;2024-01-30T02:49:02;94.30;;;18.40;;
82248;SDS011;71851;49.092;18.918;2024-01-30T02:52:03;44.30;;;15.60;;
82248;SDS011;71851;49.092;18.918;2024-01-30T02:55:04;92.60;;;16.58;;
82248;SDS011;71851;49.092;18.918;2024-01-30T02:58:06;45.38;;;14.52;;
82248;SDS011;71851;49.092;18.918;2024-01-30T03:01:06;78.75;;;16.38;;
82248;SDS011;71851;49.092;18.918;2024-01-30T03:04:07;50.63;;;13.98;;
82248;SDS011;71851;49.092;18.918;2024-01-30T03:07:08;80.18;;;15.50;;
82248;SDS011;71851;49.092;18.918;2024-01-30T03:10:09;62.53;;;16.67;;
82248;SDS011;71851;49.092;18.918;2024-01-30T03:13:10;51.70;;;14.73;;
82248;SDS011;71851;49.092;18.918;2024-01-30T03:16:10;45.78;;;16.42;;
82248;SDS011;71851;49.092;18.918;2024-01-30T03:19:11;53.95;;;15.82;;
82248;SDS011;71851;49.092;18.918;2024-01-30T03:22:11;82.15;;;16.95;;
82248;SDS011;71851;49.092;18.918;2024-01-30T03:25:11;65.10;;;15.82;;
82248;SDS011;71851;49.092;18.918;2024-01-30T03:28:13;49.05;;;15.23;;
82248;SDS011;71851;49.092;18.918;2024-01-30T03:31:14;44.90;;;14.90;;
82248;SDS011;71851;49.092;18.918;2024-01-30T03:34:15;61.65;;;15.20;;
82248;SDS011;71851;49.092;18.918;2024-01-30T03:37:16;62.58;;;16.48;;
82248;SDS011;71851;49.092;18.918;2024-01-30T03:40:16;46.50;;;13.32;;
82248;SDS011;71851;49.092;18.918;2024-01-30T03:43:17;42.10;;;13.93;;
82248;SDS011;71851;49.092;18.918;2024-01-30T03:46:17;71.28;;;16.05;;
82248;SDS011;71851;49.092;18.918;2024-01-30T03:49:18;60.88;;;13.57;;
82248;SDS011;71851;49.092;18.918;2024-01-30T03:52:18;44.30;;;16.02;;
82248;SDS011;71851;49.092;18.918;2024-01-30T03:55:19;55.92;;;13.77;;
82248;SDS011;71851;49.092;18.918;2024-01-30T03:58:19;55.72;;;13.48;;
82248;SDS011;71851;49.092;18.918;2024-01-30T04:01:19;56.05;;;13.65;;
82248;SDS011;71851;49.092;18.918;2024-01-30T04:04:20;42.30;;;13.32;;
82248;SDS011;71851;49.092;18.918;2024-01-30T04:07:21;43.13;;;13.98;;
82248;SDS011;71851;49.092;18.918;2024-01-30T04:10:23;33.40;;;14.13;;
82248;SDS011;71851;49.092;18.918;2024-01-30T04:13:25;35.83;;;14.13;;
82248;SDS011;71851;49.092;18.918;2024-01-30T04:16:25;54.33;;;14.60;;
82248;SDS011;71851;49.092;18.918;2024-01-30T04:19:26;42.72;;;14.55;;
82248;SDS011;71851;49.092;18.918;2024-01-30T04:22:26;51.05;;;14.63;;
82248;SDS011;71851;49.092;18.918;2024-01-30T04:25:27;47.28;;;13.73;;
82248;SDS011;71851;49.092;18.918;2024-01-30T04:28:29;32.92;;;13.13;;
82248;SDS011;71851;49.092;18.918;2024-01-30T04:31:31;31.42;;;15.38;;
82248;SDS011;71851;49.092;18.918;2024-01-30T04:34:31;43.65;;;13.10;;
82248;SDS011;71851;49.092;18.918;2024-01-30T04:37:31;54.50;;;11.82;;
82248;SDS011;71851;49.092;18.918;2024-01-30T04:40:32;40.13;;;11.38;;
82248;SDS011;71851;49.092;18.918;2024-01-30T04:43:32;29.33;;;10.45;;
82248;SDS011;71851;49.092;18.918;2024-01-30T04:46:33;30.35;;;12.77;;
82248;SDS011;71851;49.092;18.918;2024-01-30T04:49:36;38.55;;;12.13;;
82248;SDS011;71851;49.092;18.918;2024-01-30T04:52:37;24.90;;;12.10;;
82248;SDS011;71851;49.092;18.918;2024-01-30T04:55:37;25.83;;;10.77;;
82248;SDS011;71851;49.092;18.918;2024-01-30T04:58:37;24.40;;;9.50;;
82248;SDS011;71851;49.092;18.918;2024-01-30T05:01:38;21.15;;;10.07;;
82248;SDS011;71851;49.092;18.918;2024-01-30T05:04:38;34.40;;;10.82;;
82248;SDS011;71851;49.092;18.918;2024-01-30T05:07:41;22.15;;;9.63;;
82248;SDS011;71851;49.092;18.918;2024-01-30T05:10:41;21.13;;;9.85;;
82248;SDS011;71851;49.092;18.918;2024-01-30T05:13:42;19.83;;;10.55;;
82248;SDS011;71851;49.092;18.918;2024-01-30T05:16:42;19.77;;;10.82;;
82248;SDS011;71851;49.092;18.918;2024-01-30T05:19:46;20.08;;;9.80;;
82248;SDS011;71851;49.092;18.918;2024-01-30T05:22:47;26.88;;;10.27;;
82248;SDS011;71851;49.092;18.918;2024-01-30T05:25:47;22.77;;;9.65;;
82248;SDS011;71851;49.092;18.918;2024-01-30T05:28:47;38.10;;;10.40;;
82248;SDS011;71851;49.092;18.918;2024-01-30T05:31:50;26.58;;;10.43;;
82248;SDS011;71851;49.092;18.918;2024-01-30T05:34:51;26.17;;;9.73;;
82248;SDS011;71851;49.092;18.918;2024-01-30T05:37:52;24.27;;;11.18;;
82248;SDS011;71851;49.092;18.918;2024-01-30T05:40:52;27.23;;;12.40;;
82248;SDS011;71851;49.092;18.918;2024-01-30T05:43:53;20.67;;;9.77;;
82248;SDS011;71851;49.092;18.918;2024-01-30T05:46:53;28.75;;;11.43;;
82248;SDS011;71851;49.092;18.918;2024-01-30T05:49:54;29.33;;;10.35;;
82248;SDS011;71851;49.092;18.918;2024-01-30T05:52:54;28.65;;;12.00;;
82248;SDS011;71851;49.092;18.918;2024-01-30T05:55:54;24.98;;;12.30;;
82248;SDS011;71851;49.092;18.918;2024-01-30T05:58:55;29.40;;;12.95;;
82248;SDS011;71851;49.092;18.918;2024-01-30T06:01:55;41.05;;;14.05;;
82248;SDS011;71851;49.092;18.918;2024-01-30T06:04:56;34.67;;;13.93;;
82248;SDS011;71851;49.092;18.918;2024-01-30T06:07:57;29.17;;;13.88;;
82248;SDS011;71851;49.092;18.918;2024-01-30T06:10:57;34.08;;;14.57;;
82248;SDS011;71851;49.092;18.918;2024-01-30T06:13:57;34.95;;;14.27;;
82248;SDS011;71851;49.092;18.918;2024-01-30T06:16:58;39.60;;;13.02;;
82248;SDS011;71851;49.092;18.918;2024-01-30T06:19:59;31.90;;;13.93;;
82248;SDS011;71851;49.092;18.918;2024-01-30T06:22:59;28.10;;;13.50;;
82248;SDS011;71851;49.092;18.918;2024-01-30T06:26:00;27.02;;;13.43;;
82248;SDS011;71851;49.092;18.918;2024-01-30T06:29:01;28.63;;;12.52;;
82248;SDS011;71851;49.092;18.918;2024-01-30T06:32:01;26.95;;;13.95;;
82248;SDS011;71851;49.092;18.918;2024-01-30T06:35:02;33.60;;;13.93;;
82248;SDS011;71851;49.092;18.918;2024-01-30T06:38:03;31.33;;;14.63;;
82248;SDS011;71851;49.092;18.918;2024-01-30T06:41:04;28.35;;;14.23;;
82248;SDS011;71851;49.092;18.918;2024-01-30T06:44:06;29.60;;;13.20;;
82248;SDS011;71851;49.092;18.918;2024-01-30T06:47:09;27.15;;;12.25;;
82248;SDS011;71851;49.092;18.918;2024-01-30T06:50:10;28.33;;;13.27;;
82248;SDS011;71851;49.092;18.918;2024-01-30T06:53:12;29.85;;;12.80;;
82248;SDS011;71851;49.092;18.918;2024-01-30T06:56:12;33.13;;;14.15;;
82248;SDS011;71851;49.092;18.918;2024-01-30T06:59:14;32.80;;;14.73;;
82248;SDS011;71851;49.092;18.918;2024-01-30T07:02:15;31.65;;;13.88;;
82248;SDS011;71851;49.092;18.918;2024-01-30T07:05:15;32.83;;;14.13;;
82248;SDS011;71851;49.092;18.918;2024-01-30T07:08:17;30.67;;;13.55;;
82248;SDS011;71851;49.092;18.918;2024-01-30T07:11:18;39.60;;;16.40;;
82248;SDS011;71851;49.092;18.918;2024-01-30T07:14:23;32.30;;;14.15;;
82248;SDS011;71851;49.092;18.918;2024-01-30T07:17:23;32.22;;;13.90;;
82248;SDS011;71851;49.092;18.918;2024-01-30T07:20:24;44.30;;;16.40;;
82248;SDS011;71851;49.092;18.918;2024-01-30T07:23:24;33.38;;;14.43;;
82248;SDS011;71851;49.092;18.918;2024-01-30T07:26:25;32.72;;;14.40;;
82248;SDS011;71851;49.092;18.918;2024-01-30T07:29:25;30.45;;;14.25;;
82248;SDS011;71851;49.092;18.918;2024-01-30T07:32:25;33.78;;;15.15;;
82248;SDS011;71851;49.092;18.918;2024-01-30T07:35:26;30.98;;;15.18;;
82248;SDS011;71851;49.092;18.918;2024-01-30T07:38:26;30.95;;;14.13;;
82248;SDS011;71851;49.092;18.918;2024-01-30T07:41:26;39.03;;;15.70;;
82248;SDS011;71851;49.092;18.918;2024-01-30T07:44:27;36.22;;;16.25;;
82248;SDS011;71851;49.092;18.918;2024-01-30T07:47:27;33.55;;;14.45;;
82248;SDS011;71851;49.092;18.918;2024-01-30T07:50:28;38.97;;;17.38;;
82248;SDS011;71851;49.092;18.918;2024-01-30T07:53:28;39.38;;;15.93;;
82248;SDS011;71851;49.092;18.918;2024-01-30T07:56:28;34.28;;;15.90;;
82248;SDS011;71851;49.092;18.918;2024-01-30T07:59:29;32.08;;;14.90;;
82248;SDS011;71851;49.092;18.918;2024-01-30T08:02:30;33.08;;;15.43;;
82248;SDS011;71851;49.092;18.918;2024-01-30T08:05:30;31.02;;;15.88;;
82248;SDS011;71851;49.092;18.918;2024-01-30T08:08:32;35.20;;;16.90;;
82248;SDS011;71851;49.092;18.918;2024-01-30T08:11:32;36.38;;;16.83;;
82248;SDS011;71851;49.092;18.918;2024-01-30T08:14:32;34.72;;;17.92;;
82248;SDS011;71851;49.092;18.918;2024-01-30T08:17:34;34.53;;;20.08;;
82248;SDS011;71851;49.092;18.918;2024-01-30T08:20:35;35.95;;;19.80;;
82248;SDS011;71851;49.092;18.918;2024-01-30T08:23:35;39.22;;;20.83;;
82248;SDS011;71851;49.092;18.918;2024-01-30T08:26:38;36.83;;;18.38;;
82248;SDS011;71851;49.092;18.918;2024-01-30T08:29:39;35.80;;;19.35;;
82248;SDS011;71851;49.092;18.918;2024-01-30T08:32:39;34.90;;;18.77;;
82248;SDS011;71851;49.092;18.918;2024-01-30T08:35:40;36.50;;;19.27;;
82248;SDS011;71851;49.092;18.918;2024-01-30T08:38:41;31.83;;;19.20;;
82248;SDS011;71851;49.092;18.918;2024-01-30T08:41:41;33.65;;;18.85;;
82248;SDS011;71851;49.092;18.918;2024-01-30T08:44:42;34.13;;;18.98;;
82248;SDS011;71851;49.092;18.918;2024-01-30T08:47:42;36.63;;;18.08;;
82248;SDS011;71851;49.092;18.918;2024-01-30T08:50:43;30.83;;;17.33;;
82248;SDS011;71851;49.092;18.918;2024-01-30T08:53:44;31.25;;;17.08;;
82248;SDS011;71851;49.092;18.918;2024-01-30T08:56:45;29.27;;;17.75;;
82248;SDS011;71851;49.092;18.918;2024-01-30T08:59:45;27.38;;;17.70;;
82248;SDS011;71851;49.092;18.918;2024-01-30T09:02:46;29.05;;;16.92;;
82248;SDS011;71851;49.092;18.918;2024-01-30T09:05:46;27.85;;;16.88;;
82248;SDS011;71851;49.092;18.918;2024-01-30T09:08:47;28.95;;;17.45;;
82248;SDS011;71851;49.092;18.918;2024-01-30T09:11:47;29.27;;;18.02;;
82248;SDS011;71851;49.092;18.918;2024-01-30T09:14:48;25.30;;;15.90;;
82248;SDS011;71851;49.092;18.918;2024-01-30T09:17:48;27.95;;;15.65;;
82248;SDS011;71851;49.092;18.918;2024-01-30T09:20:48;26.55;;;15.40;;
82248;SDS011;71851;49.092;18.918;2024-01-30T09:23:49;25.83;;;15.75;;
82248;SDS011;71851;49.092;18.918;2024-01-30T09:26:49;23.77;;;14.82;;
82248;SDS011;71851;49.092;18.918;2024-01-30T09:29:49;23.67;;;14.93;;
82248;SDS011;71851;49.092;18.918;2024-01-30T09:32:51;22.10;;;14.60;;
82248;SDS011;71851;49.092;18.918;2024-01-30T09:35:51;23.38;;;16.30;;
82248;SDS011;71851;49.092;18.918;2024-01-30T09:38:52;23.23;;;14.95;;
82248;SDS011;71851;49.092;18.918;2024-01-30T09:41:55;21.48;;;16.25;;
82248;SDS011;71851;49.092;18.918;2024-01-30T09:45:05;21.80;;;15.98;;
82248;SDS011;71851;49.092;18.918;2024-01-30T09:48:06;23.20;;;17.20;;
82248;SDS011;71851;49.092;18.918;2024-01-30T09:51:07;23.52;;;17.77;;
82248;SDS011;71851;49.092;18.918;2024-01-30T09:54:09;20.45;;;16.70;;
82248;SDS011;71851;49.092;18.918;2024-01-30T09:57:11;18.42;;;15.60;;
82248;SDS011;71851;49.092;18.918;2024-01-30T10:00:12;21.38;;;17.15;;
82248;SDS011;71851;49.092;18.918;2024-01-30T10:03:13;25.88;;;18.77;;
82248;SDS011;71851;49.092;18.918;2024-01-30T10:06:15;21.27;;;15.85;;
82248;SDS011;71851;49.092;18.918;2024-01-30T10:09:17;20.67;;;16.67;;
82248;SDS011;71851;49.092;18.918;2024-01-30T10:12:17;18.90;;;15.98;;
82248;SDS011;71851;49.092;18.918;2024-01-30T10:15:18;20.00;;;16.77;;
82248;SDS011;71851;49.092;18.918;2024-01-30T10:18:19;20.00;;;16.27;;
82248;SDS011;71851;49.092;18.918;2024-01-30T10:21:19;18.08;;;15.75;;
82248;SDS011;71851;49.092;18.918;2024-01-30T10:24:23;17.85;;;15.43;;
82248;SDS011;71851;49.092;18.918;2024-01-30T10:27:27;18.73;;;15.23;;
82248;SDS011;71851;49.092;18.918;2024-01-30T10:30:29;16.75;;;15.05;;
82248;SDS011;71851;49.092;18.918;2024-01-30T10:33:30;17.67;;;15.77;;
82248;SDS011;71851;49.092;18.918;2024-01-30T10:36:30;17.60;;;15.10;;
82248;SDS011;71851;49.092;18.918;2024-01-30T10:39:45;18.08;;;14.45;;
82248;SDS011;71851;49.092;18.918;2024-01-30T10:42:46;17.30;;;15.48;;
82248;SDS011;71851;49.092;18.918;2024-01-30T10:45:46;18.58;;;14.85;;
82248;SDS011;71851;49.092;18.918;2024-01-30T10:48:50;17.27;;;15.55;;
82248;SDS011;71851;49.092;18.918;2024-01-30T10:51:58;18.33;;;15.55;;
82248;SDS011;71851;49.092;18.918;2024-01-30T10:55:00;16.90;;;14.70;;
82248;SDS011;71851;49.092;18.918;2024-01-30T10:58:01;17.48;;;15.60;;
82248;SDS011;71851;49.092;18.918;2024-01-30T11:01:02;16.75;;;14.90;;
82248;SDS011;71851;49.092;18.918;2024-01-30T11:04:04;17.40;;;14.70;;
82248;SDS011;71851;49.092;18.918;2024-01-30T11:07:17;17.40;;;15.60;;
82248;SDS011;71851;49.092;18.918;2024-01-30T11:10:18;20.75;;;15.10;;
82248;SDS011;71851;49.092;18.918;2024-01-30T11:13:19;16.70;;;14.40;;
82248;SDS011;71851;49.092;18.918;2024-01-30T11:16:19;15.68;;;13.98;;
82248;SDS011;71851;49.092;18.918;2024-01-30T11:19:27;19.15;;;14.60;;
82248;SDS011;71851;49.092;18.918;2024-01-30T11:22:30;18.30;;;15.15;;
82248;SDS011;71851;49.092;18.918;2024-01-30T11:25:31;16.02;;;14.02;;
82248;SDS011;71851;49.092;18.918;2024-01-30T11:28:35;15.07;;;13.48;;
82248;SDS011;71851;49.092;18.918;2024-01-30T11:31:38;15.32;;;13.73;;
82248;SDS011;71851;49.092;18.918;2024-01-30T11:34:40;16.95;;;13.90;;
82248;SDS011;71851;49.092;18.918;2024-01-30T11:37:41;15.60;;;13.23;;
82248;SDS011;71851;49.092;18.918;2024-01-30T11:40:45;15.05;;;13.48;;
82248;SDS011;71851;49.092;18.918;2024-01-30T11:43:55;15.30;;;13.70;;
82248;SDS011;71851;49.092;18.918;2024-01-30T11:46:55;16.05;;;14.27;;
82248;SDS011;71851;49.092;18.918;2024-01-30T11:49:56;15.70;;;14.02;;
82248;SDS011;71851;49.092;18.918;2024-01-30T11:52:57;13.95;;;12.10;;
82248;SDS011;71851;49.092;18.918;2024-01-30T11:55:59;14.52;;;12.98;;
82248;SDS011;71851;49.092;18.918;2024-01-30T11:59:00;13.93;;;12.50;;
82248;SDS011;71851;49.092;18.918;2024-01-30T12:02:01;13.07;;;11.77;;
82248;SDS011;71851;49.092;18.918;2024-01-30T12:05:05;14.38;;;12.85;;
82248;SDS011;71851;49.092;18.918;2024-01-30T12:08:06;15.75;;;12.32;;
82248;SDS011;71851;49.092;18.918;2024-01-30T12:11:07;14.65;;;11.35;;
82248;SDS011;71851;49.092;18.918;2024-01-30T12:14:07;13.70;;;11.00;;
82248;SDS011;71851;49.092;18.918;2024-01-30T12:17:08;13.25;;;10.50;;
82248;SDS011;71851;49.092;18.918;2024-01-30T12:20:10;12.93;;;10.15;;
82248;SDS011;71851;49.092;18.918;2024-01-30T12:23:12;12.82;;;10.05;;
82248;SDS011;71851;49.092;18.918;2024-01-30T12:26:13;12.25;;;9.30;;
82248;SDS011;71851;49.092;18.918;2024-01-30T12:29:14;15.07;;;9.32;;
82248;SDS011;71851;49.092;18.918;2024-01-30T12:32:15;13.80;;;9.27;;
82248;SDS011;71851;49.092;18.918;2024-01-30T12:35:17;12.70;;;9.50;;
82248;SDS011;71851;49.092;18.918;2024-01-30T12:41:20;12.40;;;8.98;;
82248;SDS011;71851;49.092;18.918;2024-01-30T12:44:20;14.45;;;9.23;;
82248;SDS011;71851;49.092;18.918;2024-01-30T12:47:21;13.95;;;8.15;;
82248;SDS011;71851;49.092;18.918;2024-01-30T12:50:21;12.90;;;8.43;;
82248;SDS011;71851;49.092;18.918;2024-01-30T12:53:22;11.45;;;8.25;;
82248;SDS011;71851;49.092;18.918;2024-01-30T12:56:22;11.00;;;7.43;;
82248;SDS011;71851;49.092;18.918;2024-01-30T12:59:24;13.20;;;8.20;;
82248;SDS011;71851;49.092;18.918;2024-01-30T13:02:24;12.13;;;7.50;;
82248;SDS011;71851;49.092;18.918;2024-01-30T13:05:26;12.95;;;8.60;;
82248;SDS011;71851;49.092;18.918;2024-01-30T13:08:27;13.38;;;8.93;;
82248;SDS011;71851;49.092;18.918;2024-01-30T13:11:27;14.30;;;8.40;;
82248;SDS011;71851;49.092;18.918;2024-01-30T13:14:28;12.52;;;7.65;;
82248;SDS011;71851;49.092;18.918;2024-01-30T13:17:28;10.18;;;6.30;;
82248;SDS011;71851;49.092;18.918;2024-01-30T13:20:29;12.38;;;7.03;;
82248;SDS011;71851;49.092;18.918;2024-01-30T13:23:29;10.35;;;7.03;;
82248;SDS011;71851;49.092;18.918;2024-01-30T13:26:31;7.95;;;5.68;;
82248;SDS011;71851;49.092;18.918;2024-01-30T13:29:32;9.65;;;6.07;;
82248;SDS011;71851;49.092;18.918;2024-01-30T13:32:32;6.70;;;4.50;;
82248;SDS011;71851;49.092;18.918;2024-01-30T13:35:33;9.02;;;5.40;;
82248;SDS011;71851;49.092;18.918;2024-01-30T13:38:33;9.73;;;6.15;;
82248;SDS011;71851;49.092;18.918;2024-01-30T13:41:34;11.45;;;5.65;;
82248;SDS011;71851;49.092;18.918;2024-01-30T13:44:35;7.05;;;4.60;;
82248;SDS011;71851;49.092;18.918;2024-01-30T13:47:40;7.50;;;5.03;;
82248;SDS011;71851;49.092;18.918;2024-01-30T13:50:41;7.75;;;3.90;;
82248;SDS011;71851;49.092;18.918;2024-01-30T13:53:41;8.65;;;4.80;;
82248;SDS011;71851;49.092;18.918;2024-01-30T13:56:42;9.43;;;5.45;;
82248;SDS011;71851;49.092;18.918;2024-01-30T13:59:42;10.63;;;5.05;;
82248;SDS011;71851;49.092;18.918;2024-01-30T14:02:43;8.93;;;4.88;;
82248;SDS011;71851;49.092;18.918;2024-01-30T14:05:44;8.00;;;5.47;;
82248;SDS011;71851;49.092;18.918;2024-01-30T14:08:44;8.40;;;5.07;;
82248;SDS011;71851;49.092;18.918;2024-01-30T14:11:45;9.80;;;5.57;;
82248;SDS011;71851;49.092;18.918;2024-01-30T14:14:45;6.85;;;4.13;;
82248;SDS011;71851;49.092;18.918;2024-01-30T14:17:45;9.57;;;5.47;;
82248;SDS011;71851;49.092;18.918;2024-01-30T14:20:48;8.75;;;6.07;;
82248;SDS011;71851;49.092;18.918;2024-01-30T14:23:49;9.73;;;5.60;;
82248;SDS011;71851;49.092;18.918;2024-01-30T14:26:49;9.10;;;6.22;;
82248;SDS011;71851;49.092;18.918;2024-01-30T14:29:50;7.05;;;4.40;;
82248;SDS011;71851;49.092;18.918;2024-01-30T14:32:50;10.80;;;5.78;;
82248;SDS011;71851;49.092;18.918;2024-01-30T14:35:51;7.30;;;5.50;;
82248;SDS011;71851;49.092;18.918;2024-01-30T14:38:51;9.45;;;5.63;;
82248;SDS011;71851;49.092;18.918;2024-01-30T14:41:52;6.63;;;5.60;;
82248;SDS011;71851;49.092;18.918;2024-01-30T14:44:52;8.20;;;5.28;;
82248;SDS011;71851;49.092;18.918;2024-01-30T14:47:53;9.90;;;5.60;;
82248;SDS011;71851;49.092;18.918;2024-01-30T14:50:55;10.40;;;5.22;;
82248;SDS011;71851;49.092;18.918;2024-01-30T14:53:56;8.93;;;5.45;;
82248;SDS011;71851;49.092;18.918;2024-01-30T14:56:56;8.27;;;5.18;;
82248;SDS011;71851;49.092;18.918;2024-01-30T14:59:57;10.45;;;5.95;;
82248;SDS011;71851;49.092;18.918;2024-01-30T15:02:58;10.85;;;5.40;;
82248;SDS011;71851;49.092;18.918;2024-01-30T15:05:58;10.73;;;6.53;;
82248;SDS011;71851;49.092;18.918;2024-01-30T15:08:59;11.02;;;5.72;;
82248;SDS011;71851;49.092;18.918;2024-01-30T15:11:59;12.95;;;5.97;;
82248;SDS011;71851;49.092;18.918;2024-01-30T15:15:00;10.38;;;5.85;;
82248;SDS011;71851;49.092;18.918;2024-01-30T15:18:00;12.23;;;6.40;;
82248;SDS011;71851;49.092;18.918;2024-01-30T15:21:00;10.40;;;6.45;;
82248;SDS011;71851;49.092;18.918;2024-01-30T15:24:02;10.75;;;6.07;;
82248;SDS011;71851;49.092;18.918;2024-01-30T15:27:03;10.43;;;6.55;;
82248;SDS011;71851;49.092;18.918;2024-01-30T15:30:04;33.50;;;18.45;;
82248;SDS011;71851;49.092;18.918;2024-01-30T15:33:05;84.40;;;42.33;;
82248;SDS011;71851;49.092;18.918;2024-01-30T15:36:05;71.57;;;39.83;;
82248;SDS011;71851;49.092;18.918;2024-01-30T15:39:06;49.63;;;26.92;;
82248;SDS011;71851;49.092;18.918;2024-01-30T15:42:07;56.15;;;25.67;;
82248;SDS011;71851;49.092;18.918;2024-01-30T15:45:08;45.97;;;21.05;;
82248;SDS011;71851;49.092;18.918;2024-01-30T15:48:08;45.15;;;20.80;;
82248;SDS011;71851;49.092;18.918;2024-01-30T15:51:08;27.05;;;14.20;;
82248;SDS011;71851;49.092;18.918;2024-01-30T15:54:09;28.40;;;14.27;;
82248;SDS011;71851;49.092;18.918;2024-01-30T15:57:09;28.13;;;15.88;;
82248;SDS011;71851;49.092;18.918;2024-01-30T16:00:11;24.92;;;13.13;;
82248;SDS011;71851;49.092;18.918;2024-01-30T16:03:13;19.65;;;12.63;;
82248;SDS011;71851;49.092;18.918;2024-01-30T16:06:14;19.15;;;12.43;;
82248;SDS011;71851;49.092;18.918;2024-01-30T16:09:14;19.48;;;12.25;;
82248;SDS011;71851;49.092;18.918;2024-01-30T16:12:15;19.63;;;12.52;;
82248;SDS011;71851;49.092;18.918;2024-01-30T16:15:15;17.40;;;10.80;;
82248;SDS011;71851;49.092;18.918;2024-01-30T16:18:16;16.20;;;10.77;;
82248;SDS011;71851;49.092;18.918;2024-01-30T16:21:16;21.05;;;11.93;;
82248;SDS011;71851;49.092;18.918;2024-01-30T16:24:17;25.52;;;12.70;;
82248;SDS011;71851;49.092;18.918;2024-01-30T16:27:17;24.10;;;12.82;;
82248;SDS011;71851;49.092;18.918;2024-01-30T16:30:17;24.17;;;12.90;;
82248;SDS011;71851;49.092;18.918;2024-01-30T16:33:18;24.48;;;12.73;;
82248;SDS011;71851;49.092;18.918;2024-01-30T16:36:19;26.48;;;15.05;;
82248;SDS011;71851;49.092;18.918;2024-01-30T16:39:19;23.35;;;14.52;;
82248;SDS011;71851;49.092;18.918;2024-01-30T16:42:20;32.05;;;15.27;;
82248;SDS011;71851;49.092;18.918;2024-01-30T16:45:21;32.50;;;15.20;;
82248;SDS011;71851;49.092;18.918;2024-01-30T16:48:21;20.77;;;11.82;;
82248;SDS011;71851;49.092;18.918;2024-01-30T16:51:22;18.65;;;10.38;;
82248;SDS011;71851;49.092;18.918;2024-01-30T16:54:23;19.90;;;10.43;;
82248;SDS011;71851;49.092;18.918;2024-01-30T16:57:24;14.70;;;8.35;;
82248;SDS011;71851;49.092;18.918;2024-01-30T17:00:24;12.73;;;8.98;;
82248;SDS011;71851;49.092;18.918;2024-01-30T17:03:25;14.10;;;8.18;;
82248;SDS011;71851;49.092;18.918;2024-01-30T17:06:26;18.02;;;9.15;;
82248;SDS011;71851;49.092;18.918;2024-01-30T17:09:26;15.95;;;9.35;;
82248;SDS011;71851;49.092;18.918;2024-01-30T17:12:27;16.17;;;9.65;;
82248;SDS011;71851;49.092;18.918;2024-01-30T17:15:28;20.83;;;11.57;;
82248;SDS011;71851;49.092;18.918;2024-01-30T17:18:30;23.75;;;12.63;;
82248;SDS011;71851;49.092;18.918;2024-01-30T17:21:31;41.70;;;17.77;;
82248;SDS011;71851;49.092;18.918;2024-01-30T17:24:34;51.13;;;23.52;;
82248;SDS011;71851;49.092;18.918;2024-01-30T17:27:34;69.57;;;30.63;;
82248;SDS011;71851;49.092;18.918;2024-01-30T17:30:36;51.28;;;24.35;;